createdAt,value
2016-12-16T00:00:13.207Z,1050.23
2016-12-16T00:01:13.193Z,1050.21
2016-12-16T00:02:13.180Z,1050.24
2016-12-16T00:03:13.168Z,1050.23
2016-12-16T00:04:13.154Z,1050.22
2016-12-16T00:05:13.140Z,1050.18
2016-12-16T00:06:13.127Z,1050.19
2016-12-16T00:07:13.114Z,1050.18
2016-12-16T00:08:13.101Z,1050.15
2016-12-16T00:09:13.087Z,1050.09
2016-12-16T00:10:13.074Z,1050.12
2016-12-16T00:11:13.062Z,1050.15
2016-12-16T00:12:13.048Z,1050.12
2016-12-16T00:13:13.035Z,1050.04
2016-12-16T00:14:13.022Z,1050.09
2016-12-16T00:15:13.009Z,1050.19
2016-12-16T00:16:12.995Z,1050.16
2016-12-16T00:17:12.982Z,1050.22
2016-12-16T00:18:12.969Z,1050.21
2016-12-16T00:19:12.958Z,1050.18
2016-12-16T00:20:12.943Z,1050.15
2016-12-16T00:21:12.930Z,1050.12
2016-12-16T00:22:12.917Z,1050.12
2016-12-16T00:23:12.903Z,1050.14
2016-12-16T00:24:12.890Z,1050.19
2016-12-16T00:25:12.877Z,1050.21
2016-12-16T00:26:12.865Z,1050.2
2016-12-16T00:27:12.850Z,1050.16
2016-12-16T00:28:12.838Z,1050.22
2016-12-16T00:29:12.826Z,1050.24
2016-12-16T00:30:12.812Z,1050.24
2016-12-16T00:31:12.802Z,1050.27
2016-12-16T00:32:12.786Z,1050.28
2016-12-16T00:33:12.772Z,1050.29
2016-12-16T00:34:12.758Z,1050.3
2016-12-16T00:35:12.745Z,1050.31
2016-12-16T00:36:12.732Z,1050.31
2016-12-16T00:37:12.720Z,1050.36
2016-12-16T00:38:12.705Z,1050.36
2016-12-16T00:39:12.693Z,1050.31
2016-12-16T00:40:12.680Z,1050.31
2016-12-16T00:41:12.667Z,1050.31
2016-12-16T00:42:12.652Z,1050.35
2016-12-16T00:43:12.639Z,1050.39
2016-12-16T00:44:12.626Z,1050.43
2016-12-16T00:45:12.612Z,1050.4
2016-12-16T00:46:12.600Z,1050.44
2016-12-16T00:47:12.586Z,1050.46
2016-12-16T00:48:12.573Z,1050.38
2016-12-16T00:49:12.559Z,1050.4
2016-12-16T00:50:12.546Z,1050.43
2016-12-16T00:51:12.533Z,1050.46
2016-12-16T00:52:12.521Z,1050.5
2016-12-16T00:53:12.507Z,1050.48
2016-12-16T00:54:12.494Z,1050.49
2016-12-16T00:55:12.481Z,1050.48
2016-12-16T00:56:12.467Z,1050.52
2016-12-16T00:57:12.454Z,1050.48
2016-12-16T00:58:12.441Z,1050.43
2016-12-16T00:59:12.428Z,1050.47
2016-12-16T01:00:12.413Z,1050.47
2016-12-16T01:01:12.401Z,1050.48
2016-12-16T01:02:12.387Z,1050.48
2016-12-16T01:03:12.373Z,1050.4
2016-12-16T01:04:12.360Z,1050.57
2016-12-16T01:05:12.347Z,1050.49
2016-12-16T01:06:12.334Z,1050.53
2016-12-16T01:07:12.320Z,1050.56
2016-12-16T01:08:12.307Z,1050.58
2016-12-16T01:09:12.294Z,1050.49
2016-12-16T01:10:12.280Z,1050.47
2016-12-16T01:11:12.266Z,1050.52
2016-12-16T01:12:12.253Z,1050.54
2016-12-16T01:13:12.240Z,1050.54
2016-12-16T01:14:12.226Z,1050.59
2016-12-16T01:15:12.213Z,1050.53
2016-12-16T01:16:12.200Z,1050.56
2016-12-16T01:17:12.187Z,1050.55
2016-12-16T01:18:12.173Z,1050.54
2016-12-16T01:19:12.159Z,1050.54
2016-12-16T01:20:12.146Z,1050.52
2016-12-16T01:21:12.133Z,1050.53
2016-12-16T01:22:12.119Z,1050.53
2016-12-16T01:23:12.107Z,1050.52
2016-12-16T01:24:12.093Z,1050.52
2016-12-16T01:25:12.080Z,1050.54
2016-12-16T01:26:12.065Z,1050.56
2016-12-16T01:27:12.052Z,1050.52
2016-12-16T01:28:12.042Z,1050.51
2016-12-16T01:29:12.025Z,1050.53
2016-12-16T01:30:12.012Z,1050.56
2016-12-16T01:31:11.999Z,1050.44
2016-12-16T01:32:11.986Z,1050.48
2016-12-16T01:33:11.972Z,1050.44
2016-12-16T01:34:11.973Z,1050.43
2016-12-16T01:35:11.945Z,1050.41
2016-12-16T01:36:11.931Z,1050.39
2016-12-16T01:37:11.918Z,1050.43
2016-12-16T01:38:11.906Z,1050.39
2016-12-16T01:39:11.893Z,1050.44
2016-12-16T01:40:11.878Z,1050.4
2016-12-16T01:41:11.864Z,1050.36
2016-12-16T01:42:11.853Z,1050.38
2016-12-16T01:43:11.838Z,1050.36
2016-12-16T01:44:11.824Z,1050.33
2016-12-16T01:45:11.811Z,1050.34
2016-12-16T01:46:11.798Z,1050.33
2016-12-16T01:47:11.784Z,1050.29
2016-12-16T01:48:11.770Z,1050.37
2016-12-16T01:49:11.757Z,1050.39
2016-12-16T01:50:11.744Z,1050.36
2016-12-16T01:51:11.736Z,1050.32
2016-12-16T01:52:11.717Z,1050.32
2016-12-16T01:53:11.704Z,1050.39
2016-12-16T01:54:11.691Z,1050.37
2016-12-16T01:55:11.677Z,1050.37
2016-12-16T01:56:11.664Z,1050.36
2016-12-16T01:57:11.651Z,1050.33
2016-12-16T01:58:11.637Z,1050.37
2016-12-16T01:59:11.623Z,1050.35
2016-12-16T02:00:11.610Z,1050.38
2016-12-16T02:01:11.597Z,1050.28
2016-12-16T02:02:11.583Z,1050.32
2016-12-16T02:03:11.570Z,1050.35
2016-12-16T02:04:11.559Z,1050.32
2016-12-16T02:05:11.544Z,1050.37
2016-12-16T02:06:11.530Z,1050.33
2016-12-16T02:07:11.517Z,1050.32
2016-12-16T02:08:11.504Z,1050.35
2016-12-16T02:09:11.490Z,1050.27
2016-12-16T02:10:11.477Z,1050.27
2016-12-16T02:11:11.465Z,1050.31
2016-12-16T02:12:11.451Z,1050.26
2016-12-16T02:13:11.439Z,1050.3
2016-12-16T02:14:11.424Z,1050.3
2016-12-16T02:15:11.411Z,1050.26
2016-12-16T02:16:11.398Z,1050.28
2016-12-16T02:17:11.384Z,1050.2
2016-12-16T02:18:11.371Z,1050.19
2016-12-16T02:19:11.358Z,1050.17
2016-12-16T02:20:11.344Z,1050.14
2016-12-16T02:21:11.331Z,1050.17
2016-12-16T02:22:11.318Z,1050.18
2016-12-16T02:23:11.305Z,1050.16
2016-12-16T02:24:11.291Z,1050.13
2016-12-16T02:25:11.281Z,1050.12
2016-12-16T02:26:11.265Z,1050.19
2016-12-16T02:27:11.253Z,1050.18
2016-12-16T02:28:11.239Z,1050.12
2016-12-16T02:29:11.226Z,1050.12
2016-12-16T02:30:11.213Z,1050.04
2016-12-16T02:31:11.199Z,1050.05
2016-12-16T02:32:11.187Z,1050.03
2016-12-16T02:33:11.174Z,1050.02
2016-12-16T02:34:11.161Z,1050.04
2016-12-16T02:35:11.147Z,1049.98
2016-12-16T02:36:11.134Z,1049.99
2016-12-16T02:37:11.121Z,1050.02
2016-12-16T02:38:11.107Z,1050.07
2016-12-16T02:39:11.094Z,1050
2016-12-16T02:40:11.081Z,1050.06
2016-12-16T02:41:11.069Z,1050.1
2016-12-16T02:42:11.055Z,1050.03
2016-12-16T02:43:11.042Z,1050.01
2016-12-16T02:44:11.029Z,1050.02
2016-12-16T02:45:11.016Z,1050.01
2016-12-16T02:46:11.002Z,1050.06
2016-12-16T02:47:10.990Z,1050.06
2016-12-16T02:48:10.977Z,1050.03
2016-12-16T02:49:10.963Z,1050.08
2016-12-16T02:50:10.950Z,1050.07
2016-12-16T02:51:10.937Z,1050.08
2016-12-16T02:52:10.924Z,1050.08
2016-12-16T02:53:10.911Z,1050.19
2016-12-16T02:54:10.898Z,1050.15
2016-12-16T02:55:10.885Z,1050.21
2016-12-16T02:56:10.872Z,1050.21
2016-12-16T02:57:10.859Z,1050.29
2016-12-16T02:58:10.845Z,1050.27
2016-12-16T02:59:10.833Z,1050.28
2016-12-16T03:00:10.819Z,1050.33
2016-12-16T03:01:10.806Z,1050.33
2016-12-16T03:02:10.793Z,1050.37
2016-12-16T03:03:10.780Z,1050.31
2016-12-16T03:04:10.767Z,1050.32
2016-12-16T03:05:10.754Z,1050.35
2016-12-16T03:06:10.741Z,1050.26
2016-12-16T03:07:10.728Z,1050.26
2016-12-16T03:08:10.715Z,1050.23
2016-12-16T03:09:10.701Z,1050.29
2016-12-16T03:10:10.689Z,1050.29
2016-12-16T03:11:10.674Z,1050.34
2016-12-16T03:12:10.661Z,1050.36
2016-12-16T03:13:10.649Z,1050.43
2016-12-16T03:14:10.636Z,1050.42
2016-12-16T03:15:10.622Z,1050.47
2016-12-16T03:16:10.609Z,1050.45
2016-12-16T03:17:10.595Z,1050.49
2016-12-16T03:18:10.583Z,1050.49
2016-12-16T03:19:10.569Z,1050.53
2016-12-16T03:20:10.556Z,1050.58
2016-12-16T03:21:10.543Z,1050.61
2016-12-16T03:22:10.529Z,1050.66
2016-12-16T03:23:10.516Z,1050.69
2016-12-16T03:24:10.503Z,1050.8
2016-12-16T03:25:10.490Z,1050.84
2016-12-16T03:26:10.475Z,1050.85
2016-12-16T03:27:10.463Z,1050.86
2016-12-16T03:28:10.450Z,1050.91
2016-12-16T03:29:10.436Z,1050.93
2016-12-16T03:30:10.422Z,1050.96
2016-12-16T03:31:10.409Z,1051.04
2016-12-16T03:32:10.400Z,1051.11
2016-12-16T03:33:10.382Z,1051.09
2016-12-16T03:34:10.368Z,1051.14
2016-12-16T03:35:10.354Z,1051.16
2016-12-16T03:36:10.341Z,1051.19
2016-12-16T03:37:10.327Z,1051.19
2016-12-16T03:38:10.313Z,1051.17
2016-12-16T03:39:10.300Z,1051.2
2016-12-16T03:40:10.286Z,1051.27
2016-12-16T03:41:10.271Z,1051.26
2016-12-16T03:42:10.258Z,1051.31
2016-12-16T03:43:10.244Z,1051.34
2016-12-16T03:44:10.230Z,1051.36
2016-12-16T03:45:10.217Z,1051.37
2016-12-16T03:46:10.202Z,1051.37
2016-12-16T03:47:10.189Z,1051.42
2016-12-16T03:48:10.174Z,1051.4
2016-12-16T03:49:10.162Z,1051.38
2016-12-16T03:50:10.152Z,1051.39
2016-12-16T03:51:10.133Z,1051.42
2016-12-16T03:52:10.118Z,1051.46
2016-12-16T03:53:10.104Z,1051.47
2016-12-16T03:54:10.090Z,1051.48
2016-12-16T03:55:10.075Z,1051.51
2016-12-16T03:56:10.061Z,1051.49
2016-12-16T03:57:10.048Z,1051.5
2016-12-16T03:58:10.034Z,1051.53
2016-12-16T03:59:10.019Z,1051.5
2016-12-16T04:00:10.005Z,1051.51
2016-12-16T04:01:09.991Z,1051.52
2016-12-16T04:02:09.977Z,1051.52
2016-12-16T04:03:09.963Z,1051.51
2016-12-16T04:04:09.949Z,1051.51
2016-12-16T04:05:09.935Z,1051.52
2016-12-16T04:06:09.921Z,1051.52
2016-12-16T04:07:09.906Z,1051.51
2016-12-16T04:08:09.891Z,1051.56
2016-12-16T04:09:09.878Z,1051.56
2016-12-16T04:10:09.862Z,1051.54
2016-12-16T04:11:09.848Z,1051.63
2016-12-16T04:12:09.834Z,1051.6
2016-12-16T04:13:09.819Z,1051.59
2016-12-16T04:14:09.805Z,1051.62
2016-12-16T04:15:09.791Z,1051.65
2016-12-16T04:16:09.776Z,1051.66
2016-12-16T04:17:09.765Z,1051.68
2016-12-16T04:18:09.747Z,1051.63
2016-12-16T04:19:09.735Z,1051.66
2016-12-16T04:20:09.719Z,1051.68
2016-12-16T04:21:09.703Z,1051.66
2016-12-16T04:22:09.689Z,1051.63
2016-12-16T04:23:09.675Z,1051.67
2016-12-16T04:24:09.660Z,1051.67
2016-12-16T04:25:09.646Z,1051.64
2016-12-16T04:26:09.631Z,1051.66
2016-12-16T04:27:09.617Z,1051.7
2016-12-16T04:28:09.602Z,1051.69
2016-12-16T04:29:09.587Z,1051.69
2016-12-16T04:30:09.573Z,1051.68
2016-12-16T04:31:09.559Z,1051.68
2016-12-16T04:32:09.543Z,1051.64
2016-12-16T04:33:09.529Z,1051.64
2016-12-16T04:34:09.515Z,1051.66
2016-12-16T04:35:09.500Z,1051.66
2016-12-16T04:36:09.486Z,1051.62
2016-12-16T04:37:09.472Z,1051.64
2016-12-16T04:38:09.457Z,1051.68
2016-12-16T04:39:09.441Z,1051.64
2016-12-16T04:40:09.428Z,1051.66
2016-12-16T04:41:09.413Z,1051.66
2016-12-16T04:42:09.399Z,1051.64
2016-12-16T04:43:09.388Z,1051.65
2016-12-16T04:44:09.369Z,1051.59
2016-12-16T04:45:09.355Z,1051.68
2016-12-16T04:46:09.339Z,1051.71
2016-12-16T04:47:09.325Z,1051.65
2016-12-16T04:48:09.311Z,1051.71
2016-12-16T04:49:09.296Z,1051.72
2016-12-16T04:50:09.281Z,1051.74
2016-12-16T04:51:09.267Z,1051.74
2016-12-16T04:52:09.253Z,1051.75
2016-12-16T04:53:09.261Z,1051.77
2016-12-16T04:54:09.223Z,1051.8
2016-12-16T04:55:09.208Z,1051.78
2016-12-16T04:56:09.194Z,1051.75
2016-12-16T04:57:09.179Z,1051.78
2016-12-16T04:58:09.164Z,1051.8
2016-12-16T04:59:09.150Z,1051.81
2016-12-16T05:00:09.136Z,1051.77
2016-12-16T05:01:09.120Z,1051.83
2016-12-16T05:02:09.106Z,1051.78
2016-12-16T05:03:09.092Z,1051.79
2016-12-16T05:04:09.077Z,1051.82
2016-12-16T05:05:09.062Z,1051.81
2016-12-16T05:06:09.047Z,1051.82
2016-12-16T05:07:09.033Z,1051.83
2016-12-16T05:08:09.018Z,1051.85
2016-12-16T05:09:09.003Z,1051.85
2016-12-16T05:10:08.989Z,1051.88
2016-12-16T05:11:08.974Z,1051.89
2016-12-16T05:12:08.959Z,1051.9
2016-12-16T05:13:08.945Z,1051.92
2016-12-16T05:14:08.930Z,1051.9
2016-12-16T05:15:08.953Z,1051.95
2016-12-16T05:16:08.901Z,1051.96
2016-12-16T05:17:08.886Z,1051.93
2016-12-16T05:18:08.871Z,1052.01
2016-12-16T05:19:08.856Z,1052
2016-12-16T05:20:08.842Z,1051.97
2016-12-16T05:21:08.827Z,1052.03
2016-12-16T05:22:08.813Z,1052.05
2016-12-16T05:23:08.797Z,1052
2016-12-16T05:24:08.783Z,1052.02
2016-12-16T05:25:08.768Z,1052.05
2016-12-16T05:26:08.754Z,1051.97
2016-12-16T05:27:08.738Z,1052
2016-12-16T05:28:08.724Z,1052.04
2016-12-16T05:29:08.710Z,1052.02
2016-12-16T05:30:08.694Z,1051.98
2016-12-16T05:31:08.679Z,1051.93
2016-12-16T05:32:08.665Z,1051.96
2016-12-16T05:33:08.650Z,1051.95
2016-12-16T05:34:08.635Z,1051.96
2016-12-16T05:35:08.620Z,1051.96
2016-12-16T05:36:08.607Z,1051.93
2016-12-16T05:37:08.591Z,1051.93
2016-12-16T05:38:08.577Z,1051.94
2016-12-16T05:39:08.562Z,1051.9
2016-12-16T05:40:08.548Z,1051.93
2016-12-16T05:41:08.532Z,1051.95
2016-12-16T05:42:08.518Z,1051.95
2016-12-16T05:43:08.503Z,1051.98
2016-12-16T05:44:08.489Z,1052
2016-12-16T05:45:08.473Z,1051.98
2016-12-16T05:46:08.458Z,1051.99
2016-12-16T05:47:08.443Z,1052.01
2016-12-16T05:48:08.428Z,1051.99
2016-12-16T05:49:08.414Z,1052.01
2016-12-16T05:50:08.399Z,1051.98
2016-12-16T05:51:08.384Z,1052.06
2016-12-16T05:52:08.369Z,1052.05
2016-12-16T05:53:08.354Z,1052.06
2016-12-16T05:54:08.340Z,1052.1
2016-12-16T05:55:08.325Z,1052.1
2016-12-16T05:56:08.310Z,1052.11
2016-12-16T05:57:08.295Z,1052.1
2016-12-16T05:58:08.281Z,1052.1
2016-12-16T05:59:08.265Z,1052.11
2016-12-16T06:00:08.252Z,1052.14
2016-12-16T06:01:08.235Z,1052.12
2016-12-16T06:02:08.221Z,1052.13
2016-12-16T06:03:08.207Z,1052.16
2016-12-16T06:04:08.191Z,1052.14
2016-12-16T06:05:08.176Z,1052.16
2016-12-16T06:06:08.161Z,1052.18
2016-12-16T06:07:08.145Z,1052.2
2016-12-16T06:08:08.131Z,1052.19
2016-12-16T06:09:08.117Z,1052.24
2016-12-16T06:10:08.100Z,1052.22
2016-12-16T06:11:08.086Z,1052.23
2016-12-16T06:12:08.071Z,1052.24
2016-12-16T06:13:08.057Z,1052.27
2016-12-16T06:14:08.041Z,1052.22
2016-12-16T06:15:08.026Z,1052.25
2016-12-16T06:16:08.011Z,1052.23
2016-12-16T06:17:07.997Z,1052.21
2016-12-16T06:18:07.981Z,1052.26
2016-12-16T06:19:07.966Z,1052.24
2016-12-16T06:20:07.952Z,1052.28
2016-12-16T06:21:07.936Z,1052.25
2016-12-16T06:22:07.922Z,1052.27
2016-12-16T06:23:07.907Z,1052.28
2016-12-16T06:24:07.892Z,1052.27
2016-12-16T06:25:07.876Z,1052.28
2016-12-16T06:26:07.862Z,1052.31
2016-12-16T06:27:07.847Z,1052.27
2016-12-16T06:28:07.832Z,1052.29
2016-12-16T06:29:07.816Z,1052.28
2016-12-16T06:30:07.802Z,1052.29
2016-12-16T06:31:07.787Z,1052.27
2016-12-16T06:32:07.771Z,1052.3
2016-12-16T06:33:07.761Z,1052.28
2016-12-16T06:34:07.742Z,1052.32
2016-12-16T06:35:07.727Z,1052.33
2016-12-16T06:36:07.712Z,1052.34
2016-12-16T06:37:07.697Z,1052.37
2016-12-16T06:38:07.682Z,1052.36
2016-12-16T06:39:07.667Z,1052.38
2016-12-16T06:40:07.651Z,1052.41
2016-12-16T06:41:07.637Z,1052.38
2016-12-16T06:42:07.622Z,1052.39
2016-12-16T06:43:07.606Z,1052.38
2016-12-16T06:44:07.591Z,1052.4
2016-12-16T06:45:07.577Z,1052.4
2016-12-16T06:46:07.561Z,1052.39
2016-12-16T06:47:07.546Z,1052.36
2016-12-16T06:48:07.532Z,1052.42
2016-12-16T06:49:07.516Z,1052.38
2016-12-16T06:50:07.501Z,1052.4
2016-12-16T06:51:07.486Z,1052.43
2016-12-16T06:52:07.472Z,1052.41
2016-12-16T06:53:07.456Z,1052.41
2016-12-16T06:54:07.440Z,1052.43
2016-12-16T06:55:07.427Z,1052.42
2016-12-16T06:56:07.411Z,1052.44
2016-12-16T06:57:07.396Z,1052.43
2016-12-16T06:58:07.380Z,1052.43
2016-12-16T06:59:07.365Z,1052.42
2016-12-16T07:00:07.351Z,1052.4
2016-12-16T07:01:07.335Z,1052.4
2016-12-16T07:02:07.320Z,1052.38
2016-12-16T07:03:07.305Z,1052.39
2016-12-16T07:04:07.290Z,1052.41
2016-12-16T07:05:07.274Z,1052.35
2016-12-16T07:06:07.261Z,1052.32
2016-12-16T07:07:07.244Z,1052.32
2016-12-16T07:08:07.230Z,1052.29
2016-12-16T07:09:07.214Z,1052.3
2016-12-16T07:10:07.199Z,1052.3
2016-12-16T07:11:07.184Z,1052.3
2016-12-16T07:12:07.169Z,1052.32
2016-12-16T07:13:07.154Z,1052.33
2016-12-16T07:14:07.140Z,1052.34
2016-12-16T07:15:07.125Z,1052.38
2016-12-16T07:16:07.109Z,1052.37
2016-12-16T07:17:07.094Z,1052.4
2016-12-16T07:18:07.079Z,1052.36
2016-12-16T07:19:07.065Z,1052.36
2016-12-16T07:20:07.048Z,1052.4
2016-12-16T07:21:07.034Z,1052.37
2016-12-16T07:22:07.020Z,1052.4
2016-12-16T07:23:07.003Z,1052.36
2016-12-16T07:24:06.989Z,1052.43
2016-12-16T07:25:06.973Z,1052.42
2016-12-16T07:26:06.959Z,1052.44
2016-12-16T07:27:06.942Z,1052.42
2016-12-16T07:28:06.927Z,1052.44
2016-12-16T07:29:06.913Z,1052.47
2016-12-16T07:30:06.899Z,1052.44
2016-12-16T07:31:06.882Z,1052.43
2016-12-16T07:32:06.867Z,1052.43
2016-12-16T07:33:06.852Z,1052.47
2016-12-16T07:34:06.836Z,1052.44
2016-12-16T07:35:06.822Z,1052.48
2016-12-16T07:36:06.807Z,1052.46
2016-12-16T07:37:06.792Z,1052.46
2016-12-16T07:38:06.776Z,1052.47
2016-12-16T07:39:06.761Z,1052.44
2016-12-16T07:40:06.746Z,1052.43
2016-12-16T07:41:06.731Z,1052.4
2016-12-16T07:42:06.715Z,1052.37
2016-12-16T07:43:06.701Z,1052.33
2016-12-16T07:44:06.686Z,1052.35
2016-12-16T07:45:06.670Z,1052.33
2016-12-16T07:46:06.656Z,1052.31
2016-12-16T07:47:06.640Z,1052.27
2016-12-16T07:48:06.626Z,1052.26
2016-12-16T07:49:06.610Z,1052.23
2016-12-16T07:50:06.595Z,1052.24
2016-12-16T07:51:06.580Z,1052.23
2016-12-16T07:52:06.566Z,1052.18
2016-12-16T07:53:06.550Z,1052.19
2016-12-16T07:54:06.535Z,1052.21
2016-12-16T07:55:06.521Z,1052.23
2016-12-16T07:56:06.506Z,1052.19
2016-12-16T07:57:06.489Z,1052.2
2016-12-16T07:58:06.475Z,1052.2
2016-12-16T07:59:06.460Z,1052.18
2016-12-16T08:00:06.444Z,1052.21
2016-12-16T08:01:06.430Z,1052.2
2016-12-16T08:02:06.415Z,1052.2
2016-12-16T08:03:06.400Z,1052.18
2016-12-16T08:04:06.384Z,1052.21
2016-12-16T08:05:06.371Z,1052.18
2016-12-16T08:06:06.355Z,1052.15
2016-12-16T08:07:06.339Z,1052.17
2016-12-16T08:08:06.325Z,1052.14
2016-12-16T08:09:06.310Z,1052.13
2016-12-16T08:10:06.295Z,1052.13
2016-12-16T08:11:06.280Z,1052.11
2016-12-16T08:12:06.266Z,1052.06
2016-12-16T08:13:06.251Z,1052.03
2016-12-16T08:14:06.237Z,1052.03
2016-12-16T08:15:06.221Z,1051.98
2016-12-16T08:16:06.206Z,1051.98
2016-12-16T08:17:06.193Z,1052
2016-12-16T08:18:06.176Z,1051.99
2016-12-16T08:19:06.162Z,1051.98
2016-12-16T08:20:06.147Z,1051.99
2016-12-16T08:21:06.133Z,1051.99
2016-12-16T08:22:06.117Z,1052
2016-12-16T08:23:06.102Z,1052
2016-12-16T08:24:06.088Z,1051.99
2016-12-16T08:25:06.074Z,1051.96
2016-12-16T08:26:06.058Z,1051.96
2016-12-16T08:27:06.044Z,1051.96
2016-12-16T08:28:06.029Z,1051.93
2016-12-16T08:29:06.016Z,1051.94
2016-12-16T08:30:06.001Z,1051.93
2016-12-16T08:31:05.986Z,1051.92
2016-12-16T08:32:05.973Z,1051.89
2016-12-16T08:33:05.956Z,1051.89
2016-12-16T08:34:05.942Z,1051.89
2016-12-16T08:35:05.928Z,1051.89
2016-12-16T08:36:05.916Z,1051.83
2016-12-16T08:37:05.898Z,1051.82
2016-12-16T08:38:05.884Z,1051.81
2016-12-16T08:39:05.870Z,1051.81
2016-12-16T08:40:05.855Z,1051.78
2016-12-16T08:41:05.841Z,1051.75
2016-12-16T08:42:05.827Z,1051.76
2016-12-16T08:43:05.813Z,1051.74
2016-12-16T08:44:05.798Z,1051.73
2016-12-16T08:45:05.785Z,1051.73
2016-12-16T08:46:05.770Z,1051.77
2016-12-16T08:47:05.756Z,1051.74
2016-12-16T08:48:05.742Z,1051.74
2016-12-16T08:49:05.728Z,1051.72
2016-12-16T08:50:05.715Z,1051.69
2016-12-16T08:51:05.699Z,1051.7
2016-12-16T08:52:05.685Z,1051.65
2016-12-16T08:53:05.671Z,1051.59
2016-12-16T08:54:05.659Z,1051.58
2016-12-16T08:55:05.642Z,1051.57
2016-12-16T08:56:05.628Z,1051.48
2016-12-16T08:57:05.615Z,1051.48
2016-12-16T08:58:05.600Z,1051.47
2016-12-16T08:59:05.586Z,1051.46
2016-12-16T09:00:05.574Z,1051.43
2016-12-16T09:01:05.560Z,1051.39
2016-12-16T09:02:05.544Z,1051.34
2016-12-16T09:03:05.530Z,1051.35
2016-12-16T09:04:05.517Z,1051.26
2016-12-16T09:05:05.503Z,1051.29
2016-12-16T09:06:05.488Z,1051.23
2016-12-16T09:07:05.475Z,1051.19
2016-12-16T09:08:05.461Z,1051.18
2016-12-16T09:09:05.446Z,1051.17
2016-12-16T09:10:05.435Z,1051.15
2016-12-16T09:11:05.421Z,1051.1
2016-12-16T09:12:05.406Z,1051.05
2016-12-16T09:13:05.392Z,1051.09
2016-12-16T09:14:05.384Z,1051.03
2016-12-16T09:15:05.367Z,1051
2016-12-16T09:16:05.352Z,1051.05
2016-12-16T09:17:05.337Z,1050.99
2016-12-16T09:18:05.324Z,1050.95
2016-12-16T09:19:05.310Z,1050.93
2016-12-16T09:20:05.296Z,1050.94
2016-12-16T09:21:05.283Z,1050.95
2016-12-16T09:22:05.270Z,1050.91
2016-12-16T09:23:05.256Z,1050.93
2016-12-16T09:24:05.242Z,1050.93
2016-12-16T09:25:05.229Z,1050.84
2016-12-16T09:26:05.215Z,1050.82
2016-12-16T09:27:05.202Z,1050.8
2016-12-16T09:28:05.188Z,1050.8
2016-12-16T09:29:05.175Z,1050.74
2016-12-16T09:30:05.162Z,1050.76
2016-12-16T09:31:05.148Z,1050.8
2016-12-16T09:32:05.135Z,1050.79
2016-12-16T09:33:05.122Z,1050.76
2016-12-16T09:34:05.109Z,1050.71
2016-12-16T09:35:05.095Z,1050.68
2016-12-16T09:36:05.081Z,1050.71
2016-12-16T09:37:05.070Z,1050.66
2016-12-16T09:38:05.056Z,1050.62
2016-12-16T09:39:05.041Z,1050.53
2016-12-16T09:40:05.028Z,1050.54
2016-12-16T09:41:05.016Z,1050.54
2016-12-16T09:42:05.002Z,1050.51
2016-12-16T09:43:04.989Z,1050.52
2016-12-16T09:44:04.977Z,1050.52
2016-12-16T09:45:04.963Z,1050.47
2016-12-16T09:46:04.949Z,1050.4
2016-12-16T09:47:04.936Z,1050.44
2016-12-16T09:48:04.924Z,1050.44
2016-12-16T09:49:04.911Z,1050.41
2016-12-16T09:50:04.897Z,1050.39
2016-12-16T09:51:04.885Z,1050.41
2016-12-16T09:52:04.871Z,1050.41
2016-12-16T09:53:04.858Z,1050.38
2016-12-16T09:54:04.845Z,1050.36
2016-12-16T09:55:04.832Z,1050.42
2016-12-16T09:56:04.820Z,1050.33
2016-12-16T09:57:04.805Z,1050.28
2016-12-16T09:58:04.794Z,1050.26
2016-12-16T09:59:04.780Z,1050.24
2016-12-16T10:00:04.768Z,1050.24
2016-12-16T10:01:04.755Z,1050.17
2016-12-16T10:02:04.742Z,1050.2
2016-12-16T10:03:04.729Z,1050.17
2016-12-16T10:04:04.715Z,1050.12
2016-12-16T10:05:04.703Z,1050.11
2016-12-16T10:06:04.691Z,1050.12
2016-12-16T10:07:04.678Z,1050.1
2016-12-16T10:08:04.664Z,1050.04
2016-12-16T10:09:04.652Z,1050.08
2016-12-16T10:10:04.639Z,1050.04
2016-12-16T10:11:04.627Z,1050.09
2016-12-16T10:12:04.615Z,1050.06
2016-12-16T10:13:04.601Z,1050.06
2016-12-16T10:14:04.589Z,1049.99
2016-12-16T10:15:04.575Z,1050.01
2016-12-16T10:16:04.563Z,1049.92
2016-12-16T10:17:04.550Z,1049.92
2016-12-16T10:18:04.538Z,1049.91
2016-12-16T10:19:04.525Z,1049.89
2016-12-16T10:20:04.512Z,1049.8
2016-12-16T10:21:04.500Z,1049.71
2016-12-16T10:22:04.489Z,1049.64
2016-12-16T10:23:04.476Z,1049.66
2016-12-16T10:24:04.463Z,1049.63
2016-12-16T10:25:04.451Z,1049.56
2016-12-16T10:26:04.438Z,1049.52
2016-12-16T10:27:04.427Z,1049.57
2016-12-16T10:28:04.414Z,1049.52
2016-12-16T10:29:04.403Z,1049.51
2016-12-16T10:30:04.393Z,1049.52
2016-12-16T10:31:04.378Z,1049.47
2016-12-16T10:32:04.365Z,1049.46
2016-12-16T10:33:04.352Z,1049.46
2016-12-16T10:34:04.339Z,1049.45
2016-12-16T10:35:04.327Z,1049.43
2016-12-16T10:36:04.315Z,1049.46
2016-12-16T10:37:04.302Z,1049.43
2016-12-16T10:38:04.290Z,1049.44
2016-12-16T10:39:04.280Z,1049.45
2016-12-16T10:40:04.266Z,1049.44
2016-12-16T10:41:04.253Z,1049.41
2016-12-16T10:42:04.241Z,1049.43
2016-12-16T10:43:04.229Z,1049.45
2016-12-16T10:44:04.216Z,1049.39
2016-12-16T10:45:04.204Z,1049.39
2016-12-16T10:46:04.193Z,1049.32
2016-12-16T10:47:04.182Z,1049.32
2016-12-16T10:48:04.168Z,1049.29
2016-12-16T10:49:04.157Z,1049.31
2016-12-16T10:50:04.144Z,1049.24
2016-12-16T10:51:04.132Z,1049.29
2016-12-16T10:52:04.120Z,1049.29
2016-12-16T10:53:04.108Z,1049.25
2016-12-16T10:54:04.096Z,1049.26
2016-12-16T10:55:04.083Z,1049.23
2016-12-16T10:56:04.072Z,1049.18
2016-12-16T10:57:04.063Z,1049.2
2016-12-16T10:58:04.049Z,1049.21
2016-12-16T10:59:04.036Z,1049.2
2016-12-16T11:00:04.024Z,1049.21
2016-12-16T11:01:04.012Z,1049.18
2016-12-16T11:02:04.001Z,1049.18
2016-12-16T11:03:03.989Z,1049.13
2016-12-16T11:04:03.977Z,1049.13
2016-12-16T11:05:03.965Z,1049.05
2016-12-16T11:06:03.952Z,1049.08
2016-12-16T11:07:03.941Z,1049.06
2016-12-16T11:08:03.933Z,1049.09
2016-12-16T11:09:03.918Z,1049.03
2016-12-16T11:10:03.905Z,1049.06
2016-12-16T11:11:03.894Z,1049.07
2016-12-16T11:12:03.883Z,1049.06
2016-12-16T11:13:03.871Z,1049.01
2016-12-16T11:14:03.859Z,1049.1
2016-12-16T11:15:03.848Z,1049.1
2016-12-16T11:16:03.837Z,1049.08
2016-12-16T11:17:03.825Z,1049.15
2016-12-16T11:18:03.812Z,1049.14
2016-12-16T11:19:03.801Z,1049.18
2016-12-16T11:20:03.791Z,1049.17
2016-12-16T11:21:03.777Z,1049.18
2016-12-16T11:22:03.766Z,1049.19
2016-12-16T11:23:03.756Z,1049.24
2016-12-16T11:24:03.743Z,1049.24
2016-12-16T11:25:03.731Z,1049.2
2016-12-16T11:26:03.720Z,1049.22
2016-12-16T11:27:03.708Z,1049.21
2016-12-16T11:28:03.696Z,1049.25
2016-12-16T11:29:03.684Z,1049.22
2016-12-16T11:30:03.673Z,1049.2
2016-12-16T11:31:03.662Z,1049.26
2016-12-16T11:32:03.649Z,1049.23
2016-12-16T11:33:03.637Z,1049.22
2016-12-16T11:34:03.626Z,1049.19
2016-12-16T11:35:03.616Z,1049.17
2016-12-16T11:36:03.602Z,1049.13
2016-12-16T11:37:03.591Z,1049.09
2016-12-16T11:38:03.579Z,1048.97
2016-12-16T11:39:03.567Z,1049.02
2016-12-16T11:40:03.557Z,1048.98
2016-12-16T11:41:03.544Z,1048.93
2016-12-16T11:42:03.532Z,1048.93
2016-12-16T11:43:03.521Z,1048.89
2016-12-16T11:44:03.509Z,1048.91
2016-12-16T11:45:03.498Z,1048.87
2016-12-16T11:46:03.486Z,1048.9
2016-12-16T11:47:03.475Z,1048.89
2016-12-16T11:48:03.463Z,1048.91
2016-12-16T11:49:03.451Z,1048.9
2016-12-16T11:50:03.439Z,1048.9
2016-12-16T11:51:03.428Z,1048.89
2016-12-16T11:52:03.417Z,1048.85
2016-12-16T11:53:03.405Z,1048.92
2016-12-16T11:54:03.393Z,1048.96
2016-12-16T11:55:03.382Z,1048.92
2016-12-16T11:56:03.370Z,1048.91
2016-12-16T11:57:03.359Z,1048.92
2016-12-16T11:58:03.348Z,1048.85
2016-12-16T11:59:03.337Z,1048.79
2016-12-16T12:00:03.325Z,1048.76
2016-12-16T12:01:03.313Z,1048.72
2016-12-16T12:02:03.302Z,1048.74
2016-12-16T12:03:03.291Z,1048.75
2016-12-16T12:04:03.280Z,1048.75
2016-12-16T12:05:03.267Z,1048.74
2016-12-16T12:06:03.258Z,1048.77
2016-12-16T12:07:03.245Z,1048.77
2016-12-16T12:08:03.233Z,1048.79